Solomon, Arizona
Current Conditions -  °F | °C
As of 12:51 AM on Monday 24 Nov 2014 (Local Time) from KSAD Reporting Station
Clear Clear  
Wind Chill: 29°   Ceiling: Unl
Heat Index: 36°   Visibility: 10mi
Dew Point: -1°   Wind: 9mph
Humidity: 21%   Direction: 340°NNW
Pressure: 30.14"   Gusts: NA
Location:  32.82°N, 109.63°W
Report Text: KSAD 240751Z AUTO 34008KT 10SM CLR 02/M18 A3014 RMK AO2 SLP192 T00221183
Loading
Personal Weather Stations






























Interactive Weather Map New forecast layout! Learn more

10-Day Weather Forecast

Advertisements
Track Severe Weather on mobile